Time;durP1;ratioP1;P1;durP2;ratioP2;P2;SDS_P1;SDS_P2;PMS_P1;PMS_P2;Temp;Humidity;BMP_temperature;BMP_pressure;BME280_temperature;BME280_humidity;BME280_pressure;Samples;Min_cycle;Max_cycle;Signal;HPM_P1;HPM_P2
2023/08/17 00:00:54;;;;;;;8.07;3.88;;;28.90;26.00;;;;;;20998480;28;20047;-59
2023/08/17 00:10:55;;;;;;;14.10;10.20;;;28.60;27.20;;;;;;20997759;28;20123;-58
2023/08/17 00:20:56;;;;;;;5.85;3.00;;;28.50;27.80;;;;;;20996538;28;20079;-58
2023/08/17 00:30:56;;;;;;;;;;;28.20;28.30;;;;;;20996097;28;20339;-58
2023/08/17 00:40:57;;;;;;;9.73;5.13;;;28.00;28.50;;;;;;20996505;28;19920;-59
2023/08/17 00:50:59;;;;;;;;;;;28.00;28.90;;;;;;20996252;28;20041;-58
2023/08/17 01:01:00;;;;;;;10.23;8.15;;;27.60;28.80;;;;;;20995225;28;20010;-57
2023/08/17 01:11:03;;;;;;;7.13;3.28;;;27.50;29.30;;;;;;20995268;28;20059;-58
2023/08/17 01:21:08;;;;;;;7.60;2.75;;;27.40;29.20;;;;;;20993073;28;20151;-58
2023/08/17 01:31:34;;;;;;;4.88;3.60;;;27.30;29.60;;;;;;20998139;28;20083;-58
2023/08/17 01:41:36;;;;;;;7.20;2.90;;;27.10;29.80;;;;;;20998266;28;20059;-58
2023/08/17 01:51:36;;;;;;;5.68;3.13;;;26.90;30.50;;;;;;21007446;28;20054;-58
2023/08/17 02:01:37;;;;;;;8.97;6.57;;;26.80;30.80;;;;;;21006600;28;20123;-58
2023/08/17 02:11:38;;;;;;;6.77;3.07;;;26.60;31.60;;;;;;21007210;28;20112;-59
2023/08/17 02:21:38;;;;;;;5.73;3.33;;;26.20;31.20;;;;;;21004927;28;20099;-58
2023/08/17 02:31:39;;;;;;;3.47;2.60;;;26.10;31.40;;;;;;21004653;28;20056;-58
2023/08/17 02:41:41;;;;;;;9.32;2.80;;;25.70;31.70;;;;;;21003752;28;20401;-58
2023/08/17 02:51:42;;;;;;;6.20;3.00;;;25.70;31.70;;;;;;21003597;28;20048;-58
2023/08/17 03:01:45;;;;;;;8.50;4.03;;;25.60;31.90;;;;;;21002469;28;20132;-57
2023/08/17 03:11:46;;;;;;;4.88;2.40;;;25.50;32.10;;;;;;21001377;28;20045;-58
2023/08/17 03:21:46;;;;;;;3.10;2.60;;;25.20;32.40;;;;;;21001582;28;20044;-58
2023/08/17 03:31:49;;;;;;;4.67;2.90;;;25.20;32.40;;;;;;20999771;28;20067;-57
2023/08/17 03:41:50;;;;;;;4.13;2.80;;;25.10;32.70;;;;;;20999716;28;20483;-58
2023/08/17 03:51:51;;;;;;;3.57;2.70;;;25.10;32.90;;;;;;20996992;28;20421;-57
2023/08/17 04:01:51;;;;;;;5.37;2.43;;;25.00;33.30;;;;;;20996864;28;20045;-58
2023/08/17 04:11:52;;;;;;;7.00;2.87;;;24.90;33.30;;;;;;20996389;28;20124;-58
2023/08/17 04:21:53;;;;;;;11.80;3.13;;;24.90;33.40;;;;;;20997056;28;20048;-59
2023/08/17 04:31:53;;;;;;;7.27;3.13;;;25.10;32.40;;;;;;20995628;28;20135;-59
2023/08/17 04:41:54;;;;;;;5.07;2.67;;;25.00;33.40;;;;;;20996419;28;20131;-58
2023/08/17 04:51:55;;;;;;;6.47;2.93;;;24.90;33.90;;;;;;20994318;28;20045;-57
2023/08/17 05:01:56;;;;;;;6.17;2.87;;;24.60;33.90;;;;;;20994164;28;20555;-58
2023/08/17 05:11:56;;;;;;;6.45;3.25;;;24.40;34.20;;;;;;21009493;28;20501;-58
2023/08/17 05:21:58;;;;;;;6.38;2.90;;;24.30;34.20;;;;;;21010844;28;20040;-57
2023/08/17 05:31:58;;;;;;;6.13;2.90;;;24.10;34.50;;;;;;21008607;28;20103;-58
2023/08/17 05:41:59;;;;;;;8.20;2.97;;;23.90;34.60;;;;;;21009060;28;20048;-56
2023/08/17 05:52:00;;;;;;;5.50;3.00;;;23.70;34.80;;;;;;21008699;28;20049;-58
2023/08/17 06:02:01;;;;;;;11.48;7.38;;;23.80;34.90;;;;;;21006364;28;20045;-57
2023/08/17 06:12:02;;;;;;;9.73;3.13;;;23.80;35.20;;;;;;21007434;28;20531;-58
2023/08/17 06:22:02;;;;;;;6.05;3.67;;;23.80;35.40;;;;;;21005814;28;20071;-58
2023/08/17 06:32:03;;;;;;;8.75;3.90;;;24.00;35.10;;;;;;21004926;28;20053;-58
2023/08/17 06:42:05;;;;;;;14.82;4.57;;;24.20;35.00;;;;;;21005137;28;20083;-57
2023/08/17 06:52:06;;;;;;;9.63;3.27;;;24.60;35.10;;;;;;21003720;28;20462;-58
2023/08/17 07:02:06;;;;;;;10.37;4.07;;;25.00;34.20;;;;;;21002897;28;20045;-59
2023/08/17 07:12:07;;;;;;;15.93;3.23;;;25.30;33.90;;;;;;21002313;28;20048;-58
2023/08/17 07:22:08;;;;;;;10.83;2.80;;;25.80;30.50;;;;;;21001502;28;20080;-57
2023/08/17 07:32:09;;;;;;;9.50;3.47;;;26.40;29.50;;;;;;21000660;28;20111;-59
2023/08/17 07:42:09;;;;;;;10.40;3.70;;;27.00;28.50;;;;;;20999850;28;20044;-58
2023/08/17 07:52:10;;;;;;;13.13;3.13;;;27.40;28.00;;;;;;20999157;28;20053;-58
2023/08/17 08:02:11;;;;;;;13.03;3.03;;;27.60;27.90;;;;;;20997645;28;20040;-58
2023/08/17 08:12:12;;;;;;;14.87;3.00;;;28.10;27.80;;;;;;20995706;28;20041;-59
2023/08/17 08:22:12;;;;;;;;;;;28.50;27.30;;;;;;20996365;28;20044;-58
2023/08/17 08:32:13;;;;;;;8.48;3.00;;;28.50;27.10;;;;;;20996539;28;20030;-57
2023/08/17 08:42:13;;;;;;;;;;;28.70;26.80;;;;;;20994693;28;20505;-58
2023/08/17 08:52:22;;;;;;;7.77;2.80;;;28.90;26.60;;;;;;20996321;28;19920;-58
2023/08/17 09:02:23;;;;;;;6.15;2.67;;;29.10;26.60;;;;;;20994675;28;20090;-58
2023/08/17 09:12:25;;;;;;;7.35;2.80;;;29.20;26.90;;;;;;20993567;28;20080;-60
2023/08/17 09:22:38;;;;;;;10.38;3.15;;;29.50;27.60;;;;;;20994568;28;20087;-62
2023/08/17 09:32:39;;;;;;;9.18;3.40;;;29.70;27.00;;;;;;20995952;28;20448;-61
2023/08/17 09:42:39;;;;;;;10.13;3.63;;;30.00;26.90;;;;;;20994540;28;20115;-63
2023/08/17 09:52:40;;;;;;;10.32;2.83;;;30.00;27.70;;;;;;20998617;28;20052;-56
2023/08/17 10:02:44;;;;;;;7.38;3.45;;;30.20;26.30;;;;;;21006163;28;20043;-57
2023/08/17 10:12:59;;;;;;;11.93;3.08;;;30.60;26.30;;;;;;21006566;28;20052;-57
2023/08/17 10:23:11;;;;;;;13.45;6.05;;;30.60;25.50;;;;;;21006153;28;20128;-57
2023/08/17 10:33:12;;;;;;;7.97;2.72;;;30.70;25.30;;;;;;21004123;28;20091;-58
2023/08/17 10:43:13;;;;;;;4.10;2.17;;;31.00;25.20;;;;;;21003029;28;20481;-58
2023/08/17 10:53:17;;;;;;;6.50;2.38;;;31.10;27.00;;;;;;21004305;28;20094;-57
2023/08/17 11:03:21;;;;;;;6.40;2.30;;;31.20;26.10;;;;;;21002724;28;20044;-57
2023/08/17 11:13:23;;;;;;;4.15;1.83;;;31.60;25.20;;;;;;21002168;28;20489;-57
2023/08/17 11:23:24;;;;;;;5.40;1.90;;;31.90;22.90;;;;;;21001184;28;20074;-57
2023/08/17 11:33:26;;;;;;;4.60;1.98;;;32.40;22.30;;;;;;20999188;28;20052;-57
2023/08/17 11:43:28;;;;;;;4.85;2.03;;;32.50;21.90;;;;;;20998739;28;20087;-57
2023/08/17 11:53:34;;;;;;;4.20;1.85;;;32.90;21.30;;;;;;20998380;28;20056;-57
2023/08/17 12:03:35;;;;;;;4.53;2.88;;;33.10;22.00;;;;;;20997891;28;20060;-58
2023/08/17 12:13:36;;;;;;;6.88;2.95;;;33.40;22.50;;;;;;20997117;28;20359;-58
2023/08/17 12:23:37;;;;;;;5.32;2.22;;;33.60;21.80;;;;;;20995948;28;20079;-58
2023/08/17 12:33:38;;;;;;;2.90;2.00;;;33.60;22.00;;;;;;20995290;28;20052;-57
2023/08/17 12:43:38;;;;;;;4.47;1.95;;;33.80;21.70;;;;;;20995540;28;20049;-58
2023/08/17 12:53:39;;;;;;;4.35;2.30;;;33.80;21.30;;;;;;20995338;28;20040;-59
2023/08/17 13:03:40;;;;;;;4.07;1.60;;;34.00;21.30;;;;;;20994823;28;20490;-57
2023/08/17 13:13:41;;;;;;;6.38;2.00;;;34.20;21.50;;;;;;20994682;28;20048;-57
2023/08/17 13:23:41;;;;;;;5.10;1.92;;;34.20;20.90;;;;;;20994526;28;20152;-58
2023/08/17 13:33:42;;;;;;;4.43;2.40;;;34.30;21.10;;;;;;21008538;28;20055;-59
2023/08/17 13:43:43;;;;;;;3.33;1.80;;;34.40;21.90;;;;;;21009095;28;20054;-57
2023/08/17 13:53:44;;;;;;;5.47;2.30;;;34.60;21.50;;;;;;21006847;28;20567;-58
2023/08/17 14:03:44;;;;;;;4.22;1.75;;;34.60;20.80;;;;;;21007541;28;20048;-58
2023/08/17 14:13:45;;;;;;;6.63;4.70;;;34.50;21.60;;;;;;21006682;28;20090;-57
2023/08/17 14:23:46;;;;;;;6.55;4.32;;;34.50;21.60;;;;;;21006240;28;20297;-57
2023/08/17 14:33:47;;;;;;;3.83;2.00;;;34.50;21.80;;;;;;21004494;28;20493;-58
2023/08/17 14:43:48;;;;;;;4.28;1.95;;;34.60;20.90;;;;;;21003695;28;20386;-57
2023/08/17 14:53:49;;;;;;;4.45;2.97;;;34.70;21.00;;;;;;21003983;28;20095;-57
2023/08/17 15:03:49;;;;;;;2.95;1.92;;;34.80;21.20;;;;;;21002902;28;20056;-58
2023/08/17 15:13:50;;;;;;;3.22;1.88;;;34.90;21.00;;;;;;21002262;28;20068;-57
2023/08/17 15:23:51;;;;;;;4.75;2.13;;;34.90;22.10;;;;;;20999810;28;20044;-58
2023/08/17 15:33:51;;;;;;;8.60;2.00;;;34.80;21.90;;;;;;20999409;28;20100;-58
2023/08/17 15:43:52;;;;;;;5.13;2.20;;;34.60;22.20;;;;;;20999615;28;20049;-57
2023/08/17 15:53:54;;;;;;;8.90;3.13;;;34.80;21.80;;;;;;20996647;28;20053;-58
2023/08/17 16:03:55;;;;;;;4.35;1.92;;;34.90;21.80;;;;;;20997837;28;20048;-57
2023/08/17 16:13:56;;;;;;;4.88;3.67;;;34.90;20.90;;;;;;20996164;28;20079;-58
2023/08/17 16:23:57;;;;;;;4.93;2.30;;;34.80;20.80;;;;;;20996831;28;20076;-58
2023/08/17 16:33:57;;;;;;;3.55;1.80;;;34.70;20.80;;;;;;20996089;28;20045;-58
2023/08/17 16:43:58;;;;;;;4.22;2.30;;;34.80;21.60;;;;;;20995728;28;20040;-58
2023/08/17 16:53:59;;;;;;;5.47;2.33;;;34.70;21.70;;;;;;20995536;28;20067;-58
2023/08/17 17:04:00;;;;;;;6.32;2.88;;;34.60;22.20;;;;;;21004676;28;20401;-59
2023/08/17 17:14:01;;;;;;;3.22;1.90;;;34.60;22.30;;;;;;21011154;28;20125;-58
2023/08/17 17:24:02;;;;;;;11.02;4.38;;;34.50;21.90;;;;;;21010310;28;20045;-58
2023/08/17 17:34:04;;;;;;;3.20;2.22;;;34.30;22.10;;;;;;21008257;28;20048;-59
2023/08/17 17:44:05;;;;;;;3.90;2.10;;;34.20;22.10;;;;;;21008969;28;20049;-56
2023/08/17 17:54:06;;;;;;;4.65;2.22;;;34.10;22.20;;;;;;21007631;28;20067;-58
2023/08/17 18:04:07;;;;;;;5.78;2.17;;;34.00;22.40;;;;;;21006814;28;20052;-57
2023/08/17 18:14:08;;;;;;;8.35;2.72;;;33.80;22.10;;;;;;21004593;28;20049;-59
2023/08/17 18:24:08;;;;;;;4.97;1.85;;;33.60;22.20;;;;;;21004009;28;20040;-57
2023/08/17 18:34:09;;;;;;;5.40;2.25;;;33.50;22.30;;;;;;21003510;28;20095;-58
2023/08/17 18:44:10;;;;;;;4.10;2.00;;;33.40;22.80;;;;;;21004152;28;20127;-58
2023/08/17 18:54:11;;;;;;;4.75;2.55;;;33.20;22.50;;;;;;21003129;28;20124;-57
2023/08/17 19:04:11;;;;;;;3.63;2.17;;;33.00;22.80;;;;;;21002390;28;20067;-58
2023/08/17 19:14:12;;;;;;;4.35;1.98;;;32.70;22.80;;;;;;21001450;28;20049;-58
2023/08/17 19:24:13;;;;;;;3.33;2.30;;;32.60;23.00;;;;;;21000172;28;20044;-56
2023/08/17 19:34:14;;;;;;;7.68;4.72;;;32.40;23.20;;;;;;20954385;28;20127;-58
2023/08/17 19:44:14;;;;;;;5.93;2.70;;;32.20;23.60;;;;;;20912176;28;20124;-59
2023/08/17 19:54:15;;;;;;;3.70;2.70;;;32.10;24.10;;;;;;20911638;28;20053;-58
2023/08/17 20:04:16;;;;;;;5.28;2.40;;;31.90;24.10;;;;;;20904773;28;20680;-59
2023/08/17 20:14:17;;;;;;;6.13;2.72;;;31.60;24.40;;;;;;20911945;28;20052;-57
2023/08/17 20:24:18;;;;;;;3.03;2.50;;;31.50;24.60;;;;;;20913912;28;20037;-57
2023/08/17 20:34:19;;;;;;;5.80;2.67;;;31.30;24.70;;;;;;20913731;28;20056;-58
2023/08/17 20:44:20;;;;;;;5.63;3.33;;;31.20;24.70;;;;;;20912813;28;20045;-58
2023/08/17 20:54:20;;;;;;;6.50;3.13;;;31.10;24.80;;;;;;20912387;28;20060;-57
2023/08/17 21:04:21;;;;;;;6.40;3.80;;;31.00;24.70;;;;;;20912745;28;20041;-57
2023/08/17 21:14:22;;;;;;;5.05;2.80;;;30.90;24.70;;;;;;20912666;28;20162;-57
2023/08/17 21:24:23;;;;;;;4.30;3.00;;;30.70;24.70;;;;;;20912426;28;20045;-56
2023/08/17 21:34:23;;;;;;;6.53;3.28;;;30.60;24.80;;;;;;20910092;28;20053;-58
2023/08/17 21:44:25;;;;;;;3.92;2.35;;;30.60;24.90;;;;;;20910809;28;20045;-58
2023/08/17 21:54:26;;;;;;;6.78;4.32;;;30.30;24.70;;;;;;20925710;28;20051;-57
2023/08/17 22:04:27;;;;;;;8.15;5.65;;;30.40;24.80;;;;;;20924582;28;20075;-57
2023/08/17 22:14:31;;;;;;;15.75;14.05;;;30.20;24.20;;;;;;20922591;28;20087;-57
2023/08/17 22:24:31;;;;;;;5.82;2.60;;;30.00;24.10;;;;;;20921481;28;20049;-57
2023/08/17 22:34:32;;;;;;;4.65;2.75;;;29.80;24.00;;;;;;20922743;28;20099;-59
2023/08/17 22:44:33;;;;;;;4.45;2.92;;;29.60;24.20;;;;;;20921287;28;20077;-56
2023/08/17 22:54:34;;;;;;;3.95;2.28;;;29.50;24.10;;;;;;20920714;28;20375;-57
2023/08/17 23:04:34;;;;;;;3.58;2.20;;;29.40;23.80;;;;;;20918890;28;20068;-57
2023/08/17 23:14:35;;;;;;;4.43;1.88;;;29.30;23.80;;;;;;20919007;28;20084;-57
2023/08/17 23:24:37;;;;;;;2.50;1.88;;;29.30;24.00;;;;;;20916564;28;20076;-57
2023/08/17 23:34:38;;;;;;;3.35;2.40;;;29.10;23.80;;;;;;20916256;28;20061;-57
2023/08/17 23:44:38;;;;;;;4.95;2.95;;;29.10;24.10;;;;;;20916341;28;20075;-57
2023/08/17 23:54:39;;;;;;;4.10;2.72;;;29.00;24.30;;;;;;20914903;28;20166;-56
